sensor_id;sensor_type;location;lat;lon;timestamp;P1;durP1;ratioP1;P2;durP2;ratioP2
11522;SDS011;40093;43.224;27.910;2022-09-03T00:01:27;7.37;;;4.80;;
11522;SDS011;40093;43.224;27.910;2022-09-03T00:04:01;9.57;;;4.60;;
11522;SDS011;40093;43.224;27.910;2022-09-03T00:06:33;7.53;;;4.93;;
11522;SDS011;40093;43.224;27.910;2022-09-03T00:09:06;8.03;;;4.80;;
11522;SDS011;40093;43.224;27.910;2022-09-03T00:11:40;9.37;;;5.50;;
11522;SDS011;40093;43.224;27.910;2022-09-03T00:14:17;9.17;;;5.10;;
11522;SDS011;40093;43.224;27.910;2022-09-03T00:16:48;9.10;;;4.90;;
11522;SDS011;40093;43.224;27.910;2022-09-03T00:19:21;10.40;;;6.33;;
11522;SDS011;40093;43.224;27.910;2022-09-03T00:21:52;9.60;;;5.53;;
11522;SDS011;40093;43.224;27.910;2022-09-03T00:24:23;9.43;;;5.00;;
11522;SDS011;40093;43.224;27.910;2022-09-03T00:26:56;7.53;;;5.07;;
11522;SDS011;40093;43.224;27.910;2022-09-03T00:29:28;10.87;;;5.23;;
11522;SDS011;40093;43.224;27.910;2022-09-03T00:32:02;7.47;;;4.80;;
11522;SDS011;40093;43.224;27.910;2022-09-03T00:34:37;7.67;;;5.20;;
11522;SDS011;40093;43.224;27.910;2022-09-03T00:37:06;9.67;;;5.37;;
11522;SDS011;40093;43.224;27.910;2022-09-03T00:39:34;8.73;;;5.13;;
11522;SDS011;40093;43.224;27.910;2022-09-03T00:42:06;11.00;;;5.33;;
11522;SDS011;40093;43.224;27.910;2022-09-03T00:44:53;9.40;;;5.13;;
11522;SDS011;40093;43.224;27.910;2022-09-03T00:47:39;11.13;;;4.97;;
11522;SDS011;40093;43.224;27.910;2022-09-03T00:50:18;9.17;;;5.20;;
11522;SDS011;40093;43.224;27.910;2022-09-03T00:52:55;8.87;;;4.47;;
11522;SDS011;40093;43.224;27.910;2022-09-03T00:55:30;8.97;;;5.23;;
11522;SDS011;40093;43.224;27.910;2022-09-03T00:58:12;8.97;;;5.33;;
11522;SDS011;40093;43.224;27.910;2022-09-03T01:00:52;9.43;;;4.90;;
11522;SDS011;40093;43.224;27.910;2022-09-03T01:03:21;8.40;;;5.00;;
11522;SDS011;40093;43.224;27.910;2022-09-03T01:06:04;8.00;;;5.07;;
11522;SDS011;40093;43.224;27.910;2022-09-03T01:08:46;11.23;;;4.90;;
11522;SDS011;40093;43.224;27.910;2022-09-03T01:11:28;9.63;;;5.10;;
11522;SDS011;40093;43.224;27.910;2022-09-03T01:14:08;8.77;;;5.37;;
11522;SDS011;40093;43.224;27.910;2022-09-03T01:16:43;6.87;;;5.00;;
11522;SDS011;40093;43.224;27.910;2022-09-03T01:19:23;9.40;;;4.87;;
11522;SDS011;40093;43.224;27.910;2022-09-03T01:22:13;9.17;;;5.20;;
11522;SDS011;40093;43.224;27.910;2022-09-03T01:28:02;7.00;;;5.20;;
11522;SDS011;40093;43.224;27.910;2022-09-03T01:30:40;7.00;;;5.03;;
11522;SDS011;40093;43.224;27.910;2022-09-03T01:33:15;6.83;;;4.87;;
11522;SDS011;40093;43.224;27.910;2022-09-03T01:35:51;8.30;;;4.80;;
11522;SDS011;40093;43.224;27.910;2022-09-03T01:38:26;6.30;;;4.83;;
11522;SDS011;40093;43.224;27.910;2022-09-03T01:41:02;5.77;;;4.80;;
11522;SDS011;40093;43.224;27.910;2022-09-03T01:43:59;5.23;;;4.10;;
11522;SDS011;40093;43.224;27.910;2022-09-03T01:46:36;4.67;;;4.10;;
11522;SDS011;40093;43.224;27.910;2022-09-03T01:49:05;6.10;;;4.20;;
11522;SDS011;40093;43.224;27.910;2022-09-03T01:51:47;8.47;;;4.23;;
11522;SDS011;40093;43.224;27.910;2022-09-03T01:54:34;4.17;;;3.77;;
11522;SDS011;40093;43.224;27.910;2022-09-03T02:00:07;4.70;;;3.50;;
11522;SDS011;40093;43.224;27.910;2022-09-03T02:02:37;6.93;;;3.80;;
11522;SDS011;40093;43.224;27.910;2022-09-03T02:05:05;4.20;;;3.60;;
11522;SDS011;40093;43.224;27.910;2022-09-03T02:07:36;4.63;;;3.93;;
11522;SDS011;40093;43.224;27.910;2022-09-03T02:10:05;4.57;;;4.10;;
11522;SDS011;40093;43.224;27.910;2022-09-03T02:12:36;4.47;;;4.07;;
11522;SDS011;40093;43.224;27.910;2022-09-03T02:15:09;4.70;;;4.30;;
11522;SDS011;40093;43.224;27.910;2022-09-03T02:17:38;6.80;;;4.50;;
11522;SDS011;40093;43.224;27.910;2022-09-03T02:20:08;4.60;;;4.20;;
11522;SDS011;40093;43.224;27.910;2022-09-03T02:22:37;4.23;;;3.87;;
11522;SDS011;40093;43.224;27.910;2022-09-03T02:25:06;4.87;;;4.40;;
11522;SDS011;40093;43.224;27.910;2022-09-03T02:27:35;4.10;;;3.70;;
11522;SDS011;40093;43.224;27.910;2022-09-03T02:30:02;4.40;;;4.00;;
11522;SDS011;40093;43.224;27.910;2022-09-03T02:32:32;4.93;;;4.43;;
11522;SDS011;40093;43.224;27.910;2022-09-03T02:34:59;5.13;;;4.53;;
11522;SDS011;40093;43.224;27.910;2022-09-03T02:37:26;4.80;;;4.27;;
11522;SDS011;40093;43.224;27.910;2022-09-03T02:39:52;4.87;;;4.10;;
11522;SDS011;40093;43.224;27.910;2022-09-03T02:42:19;5.50;;;4.80;;
11522;SDS011;40093;43.224;27.910;2022-09-03T02:44:47;6.07;;;4.47;;
11522;SDS011;40093;43.224;27.910;2022-09-03T02:47:18;7.53;;;5.40;;
11522;SDS011;40093;43.224;27.910;2022-09-03T02:49:47;6.43;;;5.13;;
11522;SDS011;40093;43.224;27.910;2022-09-03T02:52:14;6.80;;;5.27;;
11522;SDS011;40093;43.224;27.910;2022-09-03T02:54:41;5.77;;;5.13;;
11522;SDS011;40093;43.224;27.910;2022-09-03T02:57:10;6.97;;;5.63;;
11522;SDS011;40093;43.224;27.910;2022-09-03T02:59:39;7.10;;;5.40;;
11522;SDS011;40093;43.224;27.910;2022-09-03T03:02:08;7.80;;;5.60;;
11522;SDS011;40093;43.224;27.910;2022-09-03T03:04:36;6.73;;;5.90;;
11522;SDS011;40093;43.224;27.910;2022-09-03T03:07:04;7.10;;;5.33;;
11522;SDS011;40093;43.224;27.910;2022-09-03T03:09:32;6.27;;;5.20;;
11522;SDS011;40093;43.224;27.910;2022-09-03T03:11:58;8.70;;;5.40;;
11522;SDS011;40093;43.224;27.910;2022-09-03T03:14:25;7.43;;;5.70;;
11522;SDS011;40093;43.224;27.910;2022-09-03T03:16:52;7.77;;;5.50;;
11522;SDS011;40093;43.224;27.910;2022-09-03T03:19:19;6.03;;;5.23;;
11522;SDS011;40093;43.224;27.910;2022-09-03T03:21:46;6.30;;;5.07;;
11522;SDS011;40093;43.224;27.910;2022-09-03T03:24:14;6.80;;;4.40;;
11522;SDS011;40093;43.224;27.910;2022-09-03T03:26:41;6.80;;;4.73;;
11522;SDS011;40093;43.224;27.910;2022-09-03T03:29:08;6.87;;;4.60;;
11522;SDS011;40093;43.224;27.910;2022-09-03T03:31:40;7.73;;;4.63;;
11522;SDS011;40093;43.224;27.910;2022-09-03T03:34:07;7.37;;;4.67;;
11522;SDS011;40093;43.224;27.910;2022-09-03T03:36:34;5.57;;;4.30;;
11522;SDS011;40093;43.224;27.910;2022-09-03T03:39:01;6.07;;;4.33;;
11522;SDS011;40093;43.224;27.910;2022-09-03T03:41:30;7.80;;;4.53;;
11522;SDS011;40093;43.224;27.910;2022-09-03T03:43:59;4.73;;;4.00;;
11522;SDS011;40093;43.224;27.910;2022-09-03T03:46:28;5.93;;;4.50;;
11522;SDS011;40093;43.224;27.910;2022-09-03T03:48:56;5.20;;;4.20;;
11522;SDS011;40093;43.224;27.910;2022-09-03T03:51:23;6.20;;;4.23;;
11522;SDS011;40093;43.224;27.910;2022-09-03T03:53:52;7.43;;;4.17;;
11522;SDS011;40093;43.224;27.910;2022-09-03T03:56:21;5.30;;;4.20;;
11522;SDS011;40093;43.224;27.910;2022-09-03T03:58:50;6.00;;;4.33;;
11522;SDS011;40093;43.224;27.910;2022-09-03T04:01:18;5.00;;;4.00;;
11522;SDS011;40093;43.224;27.910;2022-09-03T04:03:46;5.90;;;4.10;;
11522;SDS011;40093;43.224;27.910;2022-09-03T04:06:14;4.50;;;4.10;;
11522;SDS011;40093;43.224;27.910;2022-09-03T04:08:42;6.03;;;4.93;;
11522;SDS011;40093;43.224;27.910;2022-09-03T04:11:11;5.90;;;4.73;;
11522;SDS011;40093;43.224;27.910;2022-09-03T04:13:40;8.10;;;4.60;;
11522;SDS011;40093;43.224;27.910;2022-09-03T04:16:09;6.43;;;4.20;;
11522;SDS011;40093;43.224;27.910;2022-09-03T04:18:38;5.70;;;4.70;;
11522;SDS011;40093;43.224;27.910;2022-09-03T04:21:06;4.80;;;4.40;;
11522;SDS011;40093;43.224;27.910;2022-09-03T04:23:35;7.73;;;5.60;;
11522;SDS011;40093;43.224;27.910;2022-09-03T04:26:04;4.93;;;4.37;;
11522;SDS011;40093;43.224;27.910;2022-09-03T04:28:31;4.73;;;4.33;;
11522;SDS011;40093;43.224;27.910;2022-09-03T04:30:59;5.80;;;4.40;;
11522;SDS011;40093;43.224;27.910;2022-09-03T04:33:27;5.10;;;4.20;;
11522;SDS011;40093;43.224;27.910;2022-09-03T04:36:00;5.20;;;4.00;;
11522;SDS011;40093;43.224;27.910;2022-09-03T04:38:29;7.20;;;4.37;;
11522;SDS011;40093;43.224;27.910;2022-09-03T04:40:56;5.70;;;4.37;;
11522;SDS011;40093;43.224;27.910;2022-09-03T04:43:24;4.80;;;4.30;;
11522;SDS011;40093;43.224;27.910;2022-09-03T04:45:54;5.67;;;4.90;;
11522;SDS011;40093;43.224;27.910;2022-09-03T04:48:22;6.00;;;5.37;;
11522;SDS011;40093;43.224;27.910;2022-09-03T04:50:50;5.37;;;4.77;;
11522;SDS011;40093;43.224;27.910;2022-09-03T04:53:17;7.50;;;4.73;;
11522;SDS011;40093;43.224;27.910;2022-09-03T04:55:44;8.13;;;5.70;;
11522;SDS011;40093;43.224;27.910;2022-09-03T04:58:11;7.33;;;6.50;;
11522;SDS011;40093;43.224;27.910;2022-09-03T05:00:38;8.27;;;5.43;;
11522;SDS011;40093;43.224;27.910;2022-09-03T05:03:05;6.57;;;5.40;;
11522;SDS011;40093;43.224;27.910;2022-09-03T05:05:32;8.03;;;5.20;;
11522;SDS011;40093;43.224;27.910;2022-09-03T05:08:00;7.20;;;4.80;;
11522;SDS011;40093;43.224;27.910;2022-09-03T05:10:28;37.30;;;12.17;;
11522;SDS011;40093;43.224;27.910;2022-09-03T05:12:59;9.17;;;5.93;;
11522;SDS011;40093;43.224;27.910;2022-09-03T05:15:27;8.87;;;6.17;;
11522;SDS011;40093;43.224;27.910;2022-09-03T05:17:56;14.30;;;6.23;;
11522;SDS011;40093;43.224;27.910;2022-09-03T05:20:23;11.70;;;6.43;;
11522;SDS011;40093;43.224;27.910;2022-09-03T05:22:50;12.90;;;6.87;;
11522;SDS011;40093;43.224;27.910;2022-09-03T05:25:19;13.30;;;6.33;;
11522;SDS011;40093;43.224;27.910;2022-09-03T05:27:47;7.07;;;6.37;;
11522;SDS011;40093;43.224;27.910;2022-09-03T05:30:14;7.73;;;6.43;;
11522;SDS011;40093;43.224;27.910;2022-09-03T05:32:41;8.73;;;7.17;;
11522;SDS011;40093;43.224;27.910;2022-09-03T05:35:08;10.90;;;6.80;;
11522;SDS011;40093;43.224;27.910;2022-09-03T05:37:35;8.77;;;7.27;;
11522;SDS011;40093;43.224;27.910;2022-09-03T05:40:03;9.17;;;7.67;;
11522;SDS011;40093;43.224;27.910;2022-09-03T05:42:33;10.43;;;7.80;;
11522;SDS011;40093;43.224;27.910;2022-09-03T05:45:03;11.87;;;8.20;;
11522;SDS011;40093;43.224;27.910;2022-09-03T05:47:34;11.93;;;8.63;;
11522;SDS011;40093;43.224;27.910;2022-09-03T05:50:01;9.17;;;7.30;;
11522;SDS011;40093;43.224;27.910;2022-09-03T05:52:28;10.07;;;7.80;;
11522;SDS011;40093;43.224;27.910;2022-09-03T05:54:55;8.53;;;7.33;;
11522;SDS011;40093;43.224;27.910;2022-09-03T05:57:22;10.20;;;8.53;;
11522;SDS011;40093;43.224;27.910;2022-09-03T05:59:51;12.53;;;9.33;;
11522;SDS011;40093;43.224;27.910;2022-09-03T06:02:18;13.00;;;9.70;;
11522;SDS011;40093;43.224;27.910;2022-09-03T06:04:44;11.47;;;8.20;;
11522;SDS011;40093;43.224;27.910;2022-09-03T06:07:11;11.13;;;9.43;;
11522;SDS011;40093;43.224;27.910;2022-09-03T06:09:38;13.50;;;9.43;;
11522;SDS011;40093;43.224;27.910;2022-09-03T06:12:06;11.10;;;8.37;;
11522;SDS011;40093;43.224;27.910;2022-09-03T06:14:33;11.57;;;9.00;;
11522;SDS011;40093;43.224;27.910;2022-09-03T06:17:01;13.50;;;9.80;;
11522;SDS011;40093;43.224;27.910;2022-09-03T06:19:28;13.93;;;9.30;;
11522;SDS011;40093;43.224;27.910;2022-09-03T06:21:55;12.37;;;10.60;;
11522;SDS011;40093;43.224;27.910;2022-09-03T06:24:21;11.70;;;9.97;;
11522;SDS011;40093;43.224;27.910;2022-09-03T06:26:48;15.53;;;10.67;;
11522;SDS011;40093;43.224;27.910;2022-09-03T06:29:15;14.20;;;10.33;;
11522;SDS011;40093;43.224;27.910;2022-09-03T06:31:43;13.67;;;10.03;;
11522;SDS011;40093;43.224;27.910;2022-09-03T06:34:11;11.23;;;9.47;;
11522;SDS011;40093;43.224;27.910;2022-09-03T06:36:38;9.93;;;8.90;;
11522;SDS011;40093;43.224;27.910;2022-09-03T06:39:06;10.77;;;9.67;;
11522;SDS011;40093;43.224;27.910;2022-09-03T06:41:33;11.67;;;9.90;;
11522;SDS011;40093;43.224;27.910;2022-09-03T06:44:00;10.17;;;9.07;;
11522;SDS011;40093;43.224;27.910;2022-09-03T06:46:29;11.30;;;8.63;;
11522;SDS011;40093;43.224;27.910;2022-09-03T06:48:57;10.37;;;9.27;;
11522;SDS011;40093;43.224;27.910;2022-09-03T06:51:26;12.60;;;9.13;;
11522;SDS011;40093;43.224;27.910;2022-09-03T06:54:01;10.00;;;8.70;;
11522;SDS011;40093;43.224;27.910;2022-09-03T06:56:30;10.17;;;9.10;;
11522;SDS011;40093;43.224;27.910;2022-09-03T06:58:58;11.27;;;9.40;;
11522;SDS011;40093;43.224;27.910;2022-09-03T07:01:29;10.93;;;9.43;;
11522;SDS011;40093;43.224;27.910;2022-09-03T07:03:58;11.30;;;9.30;;
11522;SDS011;40093;43.224;27.910;2022-09-03T07:06:28;11.07;;;9.47;;
11522;SDS011;40093;43.224;27.910;2022-09-03T07:08:56;10.23;;;8.80;;
11522;SDS011;40093;43.224;27.910;2022-09-03T07:11:25;13.80;;;9.03;;
11522;SDS011;40093;43.224;27.910;2022-09-03T07:13:53;10.60;;;8.40;;
11522;SDS011;40093;43.224;27.910;2022-09-03T07:16:21;10.23;;;8.63;;
11522;SDS011;40093;43.224;27.910;2022-09-03T07:18:49;9.93;;;8.90;;
11522;SDS011;40093;43.224;27.910;2022-09-03T07:21:18;9.60;;;8.60;;
11522;SDS011;40093;43.224;27.910;2022-09-03T07:23:47;11.00;;;8.70;;
11522;SDS011;40093;43.224;27.910;2022-09-03T07:26:16;9.47;;;8.30;;
11522;SDS011;40093;43.224;27.910;2022-09-03T07:28:45;9.53;;;8.53;;
11522;SDS011;40093;43.224;27.910;2022-09-03T07:31:13;10.90;;;8.13;;
11522;SDS011;40093;43.224;27.910;2022-09-03T07:33:43;10.77;;;9.67;;
11522;SDS011;40093;43.224;27.910;2022-09-03T07:36:10;10.80;;;9.67;;
11522;SDS011;40093;43.224;27.910;2022-09-03T07:38:39;11.20;;;9.33;;
11522;SDS011;40093;43.224;27.910;2022-09-03T07:41:09;12.07;;;10.43;;
11522;SDS011;40093;43.224;27.910;2022-09-03T07:43:38;12.83;;;10.83;;
11522;SDS011;40093;43.224;27.910;2022-09-03T07:46:07;12.60;;;10.83;;
11522;SDS011;40093;43.224;27.910;2022-09-03T07:48:37;12.63;;;10.63;;
11522;SDS011;40093;43.224;27.910;2022-09-03T07:51:05;11.30;;;9.73;;
11522;SDS011;40093;43.224;27.910;2022-09-03T07:53:32;11.60;;;10.27;;
11522;SDS011;40093;43.224;27.910;2022-09-03T07:56:00;11.17;;;10.07;;
11522;SDS011;40093;43.224;27.910;2022-09-03T07:58:29;12.80;;;10.23;;
11522;SDS011;40093;43.224;27.910;2022-09-03T08:00:57;11.27;;;10.27;;
11522;SDS011;40093;43.224;27.910;2022-09-03T08:03:25;11.13;;;10.00;;
11522;SDS011;40093;43.224;27.910;2022-09-03T08:05:52;11.70;;;10.50;;
11522;SDS011;40093;43.224;27.910;2022-09-03T08:08:19;12.27;;;10.10;;
11522;SDS011;40093;43.224;27.910;2022-09-03T08:10:47;11.37;;;10.20;;
11522;SDS011;40093;43.224;27.910;2022-09-03T08:13:14;15.57;;;10.70;;
11522;SDS011;40093;43.224;27.910;2022-09-03T08:15:43;14.23;;;11.30;;
11522;SDS011;40093;43.224;27.910;2022-09-03T08:18:18;10.97;;;9.87;;
11522;SDS011;40093;43.224;27.910;2022-09-03T08:20:46;13.00;;;10.20;;
11522;SDS011;40093;43.224;27.910;2022-09-03T08:23:13;11.47;;;10.37;;
11522;SDS011;40093;43.224;27.910;2022-09-03T08:25:40;12.57;;;10.07;;
11522;SDS011;40093;43.224;27.910;2022-09-03T08:28:08;10.97;;;9.93;;
11522;SDS011;40093;43.224;27.910;2022-09-03T08:30:35;11.80;;;9.23;;
11522;SDS011;40093;43.224;27.910;2022-09-03T08:33:04;11.47;;;9.43;;
11522;SDS011;40093;43.224;27.910;2022-09-03T08:35:31;9.73;;;8.60;;
11522;SDS011;40093;43.224;27.910;2022-09-03T08:37:58;9.70;;;8.80;;
11522;SDS011;40093;43.224;27.910;2022-09-03T08:40:31;10.50;;;8.83;;
11522;SDS011;40093;43.224;27.910;2022-09-03T08:43:04;9.83;;;8.70;;
11522;SDS011;40093;43.224;27.910;2022-09-03T08:45:41;9.80;;;8.80;;
11522;SDS011;40093;43.224;27.910;2022-09-03T08:48:11;9.60;;;8.60;;
11522;SDS011;40093;43.224;27.910;2022-09-03T08:50:42;9.70;;;8.80;;
11522;SDS011;40093;43.224;27.910;2022-09-03T08:53:14;9.20;;;8.30;;
11522;SDS011;40093;43.224;27.910;2022-09-03T08:55:49;9.40;;;8.47;;
11522;SDS011;40093;43.224;27.910;2022-09-03T08:58:18;9.53;;;8.63;;
11522;SDS011;40093;43.224;27.910;2022-09-03T09:00:47;11.03;;;8.47;;
11522;SDS011;40093;43.224;27.910;2022-09-03T09:03:48;9.83;;;8.60;;
11522;SDS011;40093;43.224;27.910;2022-09-03T09:06:22;10.60;;;8.13;;
11522;SDS011;40093;43.224;27.910;2022-09-03T09:08:58;11.60;;;8.60;;
11522;SDS011;40093;43.224;27.910;2022-09-03T09:11:39;11.00;;;8.10;;
11522;SDS011;40093;43.224;27.910;2022-09-03T09:14:15;11.50;;;7.90;;
11522;SDS011;40093;43.224;27.910;2022-09-03T09:16:51;9.47;;;8.60;;
11522;SDS011;40093;43.224;27.910;2022-09-03T09:19:30;10.43;;;8.33;;
11522;SDS011;40093;43.224;27.910;2022-09-03T09:22:08;8.97;;;7.30;;
11522;SDS011;40093;43.224;27.910;2022-09-03T09:24:38;10.33;;;8.37;;
11522;SDS011;40093;43.224;27.910;2022-09-03T09:27:07;8.93;;;8.07;;
11522;SDS011;40093;43.224;27.910;2022-09-03T09:29:35;8.33;;;7.37;;
11522;SDS011;40093;43.224;27.910;2022-09-03T09:32:03;9.87;;;8.23;;
11522;SDS011;40093;43.224;27.910;2022-09-03T09:34:35;9.30;;;8.40;;
11522;SDS011;40093;43.224;27.910;2022-09-03T09:37:06;10.20;;;8.80;;
11522;SDS011;40093;43.224;27.910;2022-09-03T09:39:37;9.20;;;8.30;;
11522;SDS011;40093;43.224;27.910;2022-09-03T09:42:05;8.60;;;7.80;;
11522;SDS011;40093;43.224;27.910;2022-09-03T09:44:34;10.17;;;8.17;;
11522;SDS011;40093;43.224;27.910;2022-09-03T09:47:03;10.90;;;7.67;;
11522;SDS011;40093;43.224;27.910;2022-09-03T09:49:33;9.07;;;7.07;;
11522;SDS011;40093;43.224;27.910;2022-09-03T09:52:06;7.53;;;6.77;;
11522;SDS011;40093;43.224;27.910;2022-09-03T09:54:36;8.33;;;7.53;;
11522;SDS011;40093;43.224;27.910;2022-09-03T09:57:04;9.27;;;7.67;;
11522;SDS011;40093;43.224;27.910;2022-09-03T09:59:33;8.27;;;7.00;;
11522;SDS011;40093;43.224;27.910;2022-09-03T10:02:09;9.00;;;6.90;;
11522;SDS011;40093;43.224;27.910;2022-09-03T10:04:42;7.27;;;6.50;;
11522;SDS011;40093;43.224;27.910;2022-09-03T10:07:20;9.97;;;6.63;;
11522;SDS011;40093;43.224;27.910;2022-09-03T10:09:59;9.63;;;7.20;;
11522;SDS011;40093;43.224;27.910;2022-09-03T10:12:29;7.67;;;6.10;;
11522;SDS011;40093;43.224;27.910;2022-09-03T10:15:02;8.10;;;6.77;;
11522;SDS011;40093;43.224;27.910;2022-09-03T10:17:41;7.40;;;6.70;;
11522;SDS011;40093;43.224;27.910;2022-09-03T10:20:14;7.07;;;6.47;;
11522;SDS011;40093;43.224;27.910;2022-09-03T10:22:58;8.40;;;6.57;;
11522;SDS011;40093;43.224;27.910;2022-09-03T10:25:29;6.90;;;6.20;;
11522;SDS011;40093;43.224;27.910;2022-09-03T10:28:04;6.90;;;6.20;;
11522;SDS011;40093;43.224;27.910;2022-09-03T10:30:41;7.60;;;6.80;;
11522;SDS011;40093;43.224;27.910;2022-09-03T10:33:21;7.90;;;6.70;;
11522;SDS011;40093;43.224;27.910;2022-09-03T10:35:54;7.03;;;6.33;;
11522;SDS011;40093;43.224;27.910;2022-09-03T10:38:32;7.20;;;6.50;;
11522;SDS011;40093;43.224;27.910;2022-09-03T10:41:05;6.93;;;6.23;;
11522;SDS011;40093;43.224;27.910;2022-09-03T10:43:47;6.93;;;6.20;;
11522;SDS011;40093;43.224;27.910;2022-09-03T10:46:25;7.73;;;6.47;;
11522;SDS011;40093;43.224;27.910;2022-09-03T10:49:05;9.87;;;6.57;;
11522;SDS011;40093;43.224;27.910;2022-09-03T10:51:48;7.10;;;6.40;;
11522;SDS011;40093;43.224;27.910;2022-09-03T10:54:29;7.80;;;6.77;;
11522;SDS011;40093;43.224;27.910;2022-09-03T10:57:06;6.63;;;6.03;;
11522;SDS011;40093;43.224;27.910;2022-09-03T10:59:44;7.00;;;6.30;;
11522;SDS011;40093;43.224;27.910;2022-09-03T11:02:27;6.87;;;6.10;;
11522;SDS011;40093;43.224;27.910;2022-09-03T11:05:12;7.00;;;6.20;;
11522;SDS011;40093;43.224;27.910;2022-09-03T11:07:44;9.33;;;6.67;;
11522;SDS011;40093;43.224;27.910;2022-09-03T11:10:18;6.57;;;5.97;;
11522;SDS011;40093;43.224;27.910;2022-09-03T11:12:49;8.13;;;6.57;;
11522;SDS011;40093;43.224;27.910;2022-09-03T11:15:25;9.47;;;5.97;;
11522;SDS011;40093;43.224;27.910;2022-09-03T11:17:57;6.57;;;5.90;;
11522;SDS011;40093;43.224;27.910;2022-09-03T11:20:29;8.27;;;6.60;;
11522;SDS011;40093;43.224;27.910;2022-09-03T11:22:58;7.20;;;6.40;;
11522;SDS011;40093;43.224;27.910;2022-09-03T11:25:30;7.03;;;6.23;;
11522;SDS011;40093;43.224;27.910;2022-09-03T11:28:02;6.50;;;5.90;;
11522;SDS011;40093;43.224;27.910;2022-09-03T11:30:39;6.60;;;6.00;;
11522;SDS011;40093;43.224;27.910;2022-09-03T11:33:19;6.67;;;5.97;;
11522;SDS011;40093;43.224;27.910;2022-09-03T11:35:54;5.90;;;5.40;;
11522;SDS011;40093;43.224;27.910;2022-09-03T11:38:22;7.30;;;6.10;;
11522;SDS011;40093;43.224;27.910;2022-09-03T11:41:03;8.37;;;6.00;;
11522;SDS011;40093;43.224;27.910;2022-09-03T11:43:37;6.27;;;5.67;;
11522;SDS011;40093;43.224;27.910;2022-09-03T11:46:05;6.33;;;5.73;;
11522;SDS011;40093;43.224;27.910;2022-09-03T11:48:37;6.03;;;5.43;;
11522;SDS011;40093;43.224;27.910;2022-09-03T11:51:17;7.70;;;6.03;;
11522;SDS011;40093;43.224;27.910;2022-09-03T11:53:53;7.57;;;6.07;;
11522;SDS011;40093;43.224;27.910;2022-09-03T11:56:22;7.57;;;6.87;;
11522;SDS011;40093;43.224;27.910;2022-09-03T11:59:04;8.33;;;6.27;;
11522;SDS011;40093;43.224;27.910;2022-09-03T12:01:46;8.30;;;6.33;;
11522;SDS011;40093;43.224;27.910;2022-09-03T12:04:18;8.23;;;6.50;;
11522;SDS011;40093;43.224;27.910;2022-09-03T12:07:01;9.03;;;6.90;;
11522;SDS011;40093;43.224;27.910;2022-09-03T12:12:48;7.17;;;6.47;;
11522;SDS011;40093;43.224;27.910;2022-09-03T12:15:38;10.03;;;6.87;;
11522;SDS011;40093;43.224;27.910;2022-09-03T12:18:17;7.50;;;6.40;;
11522;SDS011;40093;43.224;27.910;2022-09-03T12:20:58;8.10;;;6.60;;
11522;SDS011;40093;43.224;27.910;2022-09-03T12:23:27;7.80;;;6.37;;
11522;SDS011;40093;43.224;27.910;2022-09-03T12:25:58;6.93;;;6.23;;
11522;SDS011;40093;43.224;27.910;2022-09-03T12:28:28;8.63;;;6.73;;
11522;SDS011;40093;43.224;27.910;2022-09-03T12:31:04;6.53;;;5.93;;
11522;SDS011;40093;43.224;27.910;2022-09-03T12:33:46;8.57;;;5.73;;
11522;SDS011;40093;43.224;27.910;2022-09-03T12:36:18;6.17;;;5.60;;
11522;SDS011;40093;43.224;27.910;2022-09-03T12:38:45;7.83;;;5.13;;
11522;SDS011;40093;43.224;27.910;2022-09-03T12:41:20;6.20;;;5.60;;
11522;SDS011;40093;43.224;27.910;2022-09-03T12:43:54;7.23;;;5.87;;
11522;SDS011;40093;43.224;27.910;2022-09-03T12:46:23;7.50;;;5.73;;
11522;SDS011;40093;43.224;27.910;2022-09-03T12:48:55;6.10;;;5.50;;
11522;SDS011;40093;43.224;27.910;2022-09-03T12:51:29;5.40;;;4.90;;
11522;SDS011;40093;43.224;27.910;2022-09-03T12:53:58;6.23;;;5.63;;
11522;SDS011;40093;43.224;27.910;2022-09-03T12:56:25;6.27;;;5.20;;
11522;SDS011;40093;43.224;27.910;2022-09-03T12:59:00;7.77;;;5.33;;
11522;SDS011;40093;43.224;27.910;2022-09-03T13:01:31;6.20;;;5.60;;
11522;SDS011;40093;43.224;27.910;2022-09-03T13:04:02;5.90;;;5.30;;
11522;SDS011;40093;43.224;27.910;2022-09-03T13:06:39;6.80;;;6.20;;
11522;SDS011;40093;43.224;27.910;2022-09-03T13:09:14;6.50;;;5.47;;
11522;SDS011;40093;43.224;27.910;2022-09-03T13:11:45;7.43;;;5.30;;
11522;SDS011;40093;43.224;27.910;2022-09-03T13:14:13;5.63;;;5.13;;
11522;SDS011;40093;43.224;27.910;2022-09-03T13:16:48;6.00;;;5.50;;
11522;SDS011;40093;43.224;27.910;2022-09-03T13:19:36;7.80;;;5.77;;
11522;SDS011;40093;43.224;27.910;2022-09-03T13:22:19;7.57;;;6.10;;
11522;SDS011;40093;43.224;27.910;2022-09-03T13:27:43;6.43;;;5.60;;
11522;SDS011;40093;43.224;27.910;2022-09-03T13:30:20;6.50;;;5.90;;
11522;SDS011;40093;43.224;27.910;2022-09-03T13:32:52;9.57;;;7.50;;
11522;SDS011;40093;43.224;27.910;2022-09-03T13:35:29;7.37;;;6.33;;
11522;SDS011;40093;43.224;27.910;2022-09-03T13:38:03;6.63;;;6.03;;
11522;SDS011;40093;43.224;27.910;2022-09-03T13:40:35;6.33;;;5.83;;
11522;SDS011;40093;43.224;27.910;2022-09-03T13:43:09;6.97;;;6.27;;
11522;SDS011;40093;43.224;27.910;2022-09-03T13:45:51;7.07;;;6.03;;
11522;SDS011;40093;43.224;27.910;2022-09-03T13:48:24;7.50;;;6.20;;
11522;SDS011;40093;43.224;27.910;2022-09-03T13:51:14;8.47;;;6.07;;
11522;SDS011;40093;43.224;27.910;2022-09-03T13:53:49;7.17;;;6.07;;
11522;SDS011;40093;43.224;27.910;2022-09-03T13:56:28;6.90;;;6.20;;
11522;SDS011;40093;43.224;27.910;2022-09-03T13:59:03;6.93;;;6.23;;
11522;SDS011;40093;43.224;27.910;2022-09-03T14:01:41;6.40;;;5.77;;
11522;SDS011;40093;43.224;27.910;2022-09-03T14:04:20;6.73;;;6.13;;
11522;SDS011;40093;43.224;27.910;2022-09-03T14:06:56;9.53;;;6.70;;
11522;SDS011;40093;43.224;27.910;2022-09-03T14:09:29;7.23;;;6.53;;
11522;SDS011;40093;43.224;27.910;2022-09-03T14:12:04;6.47;;;5.80;;
11522;SDS011;40093;43.224;27.910;2022-09-03T14:14:40;6.60;;;6.00;;
11522;SDS011;40093;43.224;27.910;2022-09-03T14:17:18;7.70;;;5.77;;
11522;SDS011;40093;43.224;27.910;2022-09-03T14:19:57;6.20;;;5.60;;
11522;SDS011;40093;43.224;27.910;2022-09-03T14:22:28;5.77;;;5.27;;
11522;SDS011;40093;43.224;27.910;2022-09-03T14:25:08;5.90;;;4.90;;
11522;SDS011;40093;43.224;27.910;2022-09-03T14:27:40;5.50;;;5.00;;
11522;SDS011;40093;43.224;27.910;2022-09-03T14:30:16;5.17;;;4.67;;
11522;SDS011;40093;43.224;27.910;2022-09-03T14:32:52;6.73;;;4.83;;
11522;SDS011;40093;43.224;27.910;2022-09-03T14:44:19;4.40;;;4.00;;
11522;SDS011;40093;43.224;27.910;2022-09-03T14:46:59;4.87;;;4.10;;
11522;SDS011;40093;43.224;27.910;2022-09-03T14:52:47;4.43;;;4.03;;
11522;SDS011;40093;43.224;27.910;2022-09-03T14:55:26;4.67;;;3.53;;
11522;SDS011;40093;43.224;27.910;2022-09-03T14:58:11;4.17;;;3.77;;
11522;SDS011;40093;43.224;27.910;2022-09-03T15:00:51;5.23;;;4.10;;
11522;SDS011;40093;43.224;27.910;2022-09-03T15:03:38;4.20;;;3.80;;
11522;SDS011;40093;43.224;27.910;2022-09-03T15:06:38;4.27;;;3.87;;
11522;SDS011;40093;43.224;27.910;2022-09-03T15:09:20;4.63;;;4.23;;
11522;SDS011;40093;43.224;27.910;2022-09-03T15:11:54;4.77;;;4.10;;
11522;SDS011;40093;43.224;27.910;2022-09-03T15:14:25;4.70;;;4.30;;
11522;SDS011;40093;43.224;27.910;2022-09-03T15:16:58;4.90;;;4.40;;
11522;SDS011;40093;43.224;27.910;2022-09-03T15:19:39;5.50;;;5.00;;
11522;SDS011;40093;43.224;27.910;2022-09-03T15:22:21;6.33;;;5.20;;
11522;SDS011;40093;43.224;27.910;2022-09-03T15:25:03;6.43;;;5.27;;